Airfield :
LOGIN :

Register | Disclaimer

   EN    FR    IT 

 










Legend :    VFR   Marginal VFR   IFR   Intensive IFR   Very Intensive IFR
Visi :
Ceiling :
>= 8 km
>= 3000ft
5 to 8 km
1000 to 3000 ft
1500m to 5 km
500 to 1000 ft
800 to 1500m
200 to 500 ft
< 800m
< 200 ft
Symbols :   Thunderstorms  Fog  Heavy snow  Heavy precipitations  Wind > 20 kt
SIGMETs :     Misc.  Thunderstorms  Icing  Turbulence  Mountain Waves  Volcanic Ashes






- Airport Elevation : 220 ft
- IATA code : CWL


EGFF - Cardiff Rhoose

CURRENT METAR :
  • 050650Z AUTO 29015KT 9999 SCT033 BKN040 11/07 Q0999

EXPIRED METARs :
  • 050620Z AUTO 30016KT 9999 NCD 11/07 Q0999
  • 050550Z AUTO 30014KT 9999 NCD 11/07 Q0999
  • 050520Z AUTO 31016KT 9999 NCD 10/07 Q0999
  • 050450Z AUTO 31013KT 9999 NCD 10/08 Q0998
  • 050420Z AUTO 31011KT 9999 NCD 10/08 Q0999

TAF COR TAF EGFF
Valid from the 05 at 06:00 until the 06 at 06:00 UTC


050637Z 0506/0606 30011KT 9999 SCT025
PROB40
TEMPO 0507/0522 29018G28KT 7000 SHRA BKN014
TEMPO 0604/0606 27018G28KT
ATIS : +44 1446 729 319



MET'MAP, your aeronautical weather chart ! - Copyright ORBIFLY December 2007 - Disclaimer

ORBIFLY MET'MAP TEAM :

Programming & Development : Alexandra Zaïnal
Concept & original design : Baudouin d'Aumeries
Assistance for programming : Marc-Olivier Méhu
Technical & hardware support : Manuel Goepfert

Contact : metmap@orbifly.com




SOURCES & CREDITS :

   NOAA